sensor_id;sensor_type;location;lat;lon;timestamp;P1;durP1;ratioP1;P2;durP2;ratioP2
2213;SDS011;1113;42.018;23.986;2022-11-15T00:00:05;53.17;;;38.63;;
2213;SDS011;1113;42.018;23.986;2022-11-15T00:02:31;51.42;;;39.17;;
2213;SDS011;1113;42.018;23.986;2022-11-15T00:04:58;53.38;;;38.95;;
2213;SDS011;1113;42.018;23.986;2022-11-15T00:07:24;48.65;;;35.75;;
2213;SDS011;1113;42.018;23.986;2022-11-15T00:09:51;47.28;;;36.63;;
2213;SDS011;1113;42.018;23.986;2022-11-15T00:12:17;89.65;;;51.20;;
2213;SDS011;1113;42.018;23.986;2022-11-15T00:14:44;54.80;;;38.60;;
2213;SDS011;1113;42.018;23.986;2022-11-15T00:17:12;63.58;;;43.40;;
2213;SDS011;1113;42.018;23.986;2022-11-15T00:19:38;57.83;;;40.17;;
2213;SDS011;1113;42.018;23.986;2022-11-15T00:22:05;49.33;;;37.55;;
2213;SDS011;1113;42.018;23.986;2022-11-15T00:24:31;55.00;;;37.95;;
2213;SDS011;1113;42.018;23.986;2022-11-15T00:26:58;56.13;;;36.75;;
2213;SDS011;1113;42.018;23.986;2022-11-15T00:29:25;46.13;;;34.38;;
2213;SDS011;1113;42.018;23.986;2022-11-15T00:31:52;53.80;;;37.15;;
2213;SDS011;1113;42.018;23.986;2022-11-15T00:34:20;52.72;;;34.90;;
2213;SDS011;1113;42.018;23.986;2022-11-15T00:36:46;54.72;;;38.10;;
2213;SDS011;1113;42.018;23.986;2022-11-15T00:39:13;57.58;;;38.85;;
2213;SDS011;1113;42.018;23.986;2022-11-15T00:41:39;52.45;;;36.17;;
2213;SDS011;1113;42.018;23.986;2022-11-15T00:44:06;63.58;;;41.22;;
2213;SDS011;1113;42.018;23.986;2022-11-15T00:46:32;47.70;;;33.63;;
2213;SDS011;1113;42.018;23.986;2022-11-15T00:48:59;45.25;;;33.17;;
2213;SDS011;1113;42.018;23.986;2022-11-15T00:51:27;45.55;;;32.25;;
2213;SDS011;1113;42.018;23.986;2022-11-15T00:53:53;45.15;;;31.40;;
2213;SDS011;1113;42.018;23.986;2022-11-15T00:56:20;46.03;;;32.17;;
2213;SDS011;1113;42.018;23.986;2022-11-15T00:58:46;56.60;;;37.28;;
2213;SDS011;1113;42.018;23.986;2022-11-15T01:01:13;64.70;;;36.63;;
2213;SDS011;1113;42.018;23.986;2022-11-15T01:03:40;62.88;;;39.05;;
2213;SDS011;1113;42.018;23.986;2022-11-15T01:06:07;67.25;;;40.60;;
2213;SDS011;1113;42.018;23.986;2022-11-15T01:08:35;69.63;;;41.15;;
2213;SDS011;1113;42.018;23.986;2022-11-15T01:11:02;56.63;;;37.20;;
2213;SDS011;1113;42.018;23.986;2022-11-15T01:13:29;69.03;;;42.20;;
2213;SDS011;1113;42.018;23.986;2022-11-15T01:15:56;44.58;;;30.70;;
2213;SDS011;1113;42.018;23.986;2022-11-15T01:18:23;70.53;;;40.90;;
2213;SDS011;1113;42.018;23.986;2022-11-15T01:20:49;59.33;;;37.20;;
2213;SDS011;1113;42.018;23.986;2022-11-15T01:23:16;41.42;;;29.17;;
2213;SDS011;1113;42.018;23.986;2022-11-15T01:25:43;52.72;;;33.92;;
2213;SDS011;1113;42.018;23.986;2022-11-15T01:28:10;62.92;;;30.65;;
2213;SDS011;1113;42.018;23.986;2022-11-15T01:30:36;49.70;;;27.65;;
2213;SDS011;1113;42.018;23.986;2022-11-15T01:33:03;49.30;;;33.42;;
2213;SDS011;1113;42.018;23.986;2022-11-15T01:35:30;74.20;;;41.72;;
2213;SDS011;1113;42.018;23.986;2022-11-15T01:37:56;58.60;;;36.78;;
2213;SDS011;1113;42.018;23.986;2022-11-15T01:40:23;53.85;;;33.45;;
2213;SDS011;1113;42.018;23.986;2022-11-15T01:42:51;70.80;;;39.47;;
2213;SDS011;1113;42.018;23.986;2022-11-15T01:45:17;66.20;;;36.15;;
2213;SDS011;1113;42.018;23.986;2022-11-15T01:47:44;60.33;;;32.65;;
2213;SDS011;1113;42.018;23.986;2022-11-15T01:50:13;50.67;;;31.30;;
2213;SDS011;1113;42.018;23.986;2022-11-15T01:52:40;51.35;;;29.52;;
2213;SDS011;1113;42.018;23.986;2022-11-15T01:55:08;48.97;;;29.83;;
2213;SDS011;1113;42.018;23.986;2022-11-15T01:57:35;67.40;;;34.22;;
2213;SDS011;1113;42.018;23.986;2022-11-15T02:00:04;58.20;;;30.92;;
2213;SDS011;1113;42.018;23.986;2022-11-15T02:02:31;56.72;;;32.38;;
2213;SDS011;1113;42.018;23.986;2022-11-15T02:04:58;62.80;;;29.05;;
2213;SDS011;1113;42.018;23.986;2022-11-15T02:07:25;97.40;;;34.03;;
2213;SDS011;1113;42.018;23.986;2022-11-15T02:09:51;51.83;;;27.00;;
2213;SDS011;1113;42.018;23.986;2022-11-15T02:12:19;89.05;;;32.00;;
2213;SDS011;1113;42.018;23.986;2022-11-15T02:14:47;108.18;;;30.80;;
2213;SDS011;1113;42.018;23.986;2022-11-15T02:17:23;94.07;;;33.70;;
2213;SDS011;1113;42.018;23.986;2022-11-15T02:19:59;89.07;;;30.40;;
2213;SDS011;1113;42.018;23.986;2022-11-15T02:22:35;83.75;;;31.60;;
2213;SDS011;1113;42.018;23.986;2022-11-15T02:30:34;142.45;;;36.42;;
2213;SDS011;1113;42.018;23.986;2022-11-15T02:33:03;147.93;;;34.78;;
2213;SDS011;1113;42.018;23.986;2022-11-15T02:35:37;120.70;;;37.05;;
2213;SDS011;1113;42.018;23.986;2022-11-15T02:38:08;102.70;;;34.70;;
2213;SDS011;1113;42.018;23.986;2022-11-15T02:40:40;102.13;;;36.15;;
2213;SDS011;1113;42.018;23.986;2022-11-15T02:43:10;47.20;;;31.08;;
2213;SDS011;1113;42.018;23.986;2022-11-15T02:45:58;82.70;;;36.83;;
2213;SDS011;1113;42.018;23.986;2022-11-15T02:48:28;78.65;;;33.60;;
2213;SDS011;1113;42.018;23.986;2022-11-15T02:50:54;86.18;;;37.60;;
2213;SDS011;1113;42.018;23.986;2022-11-15T02:53:23;130.27;;;45.25;;
2213;SDS011;1113;42.018;23.986;2022-11-15T02:55:50;64.53;;;36.75;;
2213;SDS011;1113;42.018;23.986;2022-11-15T02:58:22;123.20;;;43.28;;
2213;SDS011;1113;42.018;23.986;2022-11-15T03:00:51;58.42;;;37.70;;
2213;SDS011;1113;42.018;23.986;2022-11-15T03:06:04;78.25;;;38.65;;
2213;SDS011;1113;42.018;23.986;2022-11-15T03:08:37;148.30;;;45.63;;
2213;SDS011;1113;42.018;23.986;2022-11-15T03:11:07;116.65;;;44.70;;
2213;SDS011;1113;42.018;23.986;2022-11-15T03:13:36;64.53;;;37.03;;
2213;SDS011;1113;42.018;23.986;2022-11-15T03:16:04;86.60;;;40.35;;
2213;SDS011;1113;42.018;23.986;2022-11-15T03:18:34;74.80;;;40.15;;
2213;SDS011;1113;42.018;23.986;2022-11-15T03:21:04;89.35;;;39.40;;
2213;SDS011;1113;42.018;23.986;2022-11-15T03:23:32;54.60;;;32.03;;
2213;SDS011;1113;42.018;23.986;2022-11-15T03:25:59;60.92;;;33.75;;
2213;SDS011;1113;42.018;23.986;2022-11-15T03:28:28;58.88;;;31.83;;
2213;SDS011;1113;42.018;23.986;2022-11-15T03:30:58;52.38;;;31.83;;
2213;SDS011;1113;42.018;23.986;2022-11-15T03:33:25;79.38;;;31.10;;
2213;SDS011;1113;42.018;23.986;2022-11-15T03:35:52;87.30;;;34.00;;
2213;SDS011;1113;42.018;23.986;2022-11-15T03:38:22;81.72;;;33.88;;
2213;SDS011;1113;42.018;23.986;2022-11-15T03:40:54;147.65;;;36.15;;
2213;SDS011;1113;42.018;23.986;2022-11-15T03:43:24;62.03;;;36.35;;
2213;SDS011;1113;42.018;23.986;2022-11-15T03:45:53;83.10;;;36.90;;
2213;SDS011;1113;42.018;23.986;2022-11-15T03:48:22;104.40;;;38.45;;
2213;SDS011;1113;42.018;23.986;2022-11-15T03:50:50;203.05;;;40.97;;
2213;SDS011;1113;42.018;23.986;2022-11-15T03:53:17;160.93;;;45.05;;
2213;SDS011;1113;42.018;23.986;2022-11-15T03:55:45;187.05;;;48.85;;
2213;SDS011;1113;42.018;23.986;2022-11-15T03:58:11;102.90;;;40.13;;
2213;SDS011;1113;42.018;23.986;2022-11-15T04:00:38;179.15;;;45.10;;
2213;SDS011;1113;42.018;23.986;2022-11-15T04:03:04;103.18;;;42.42;;
2213;SDS011;1113;42.018;23.986;2022-11-15T04:05:32;111.60;;;35.72;;
2213;SDS011;1113;42.018;23.986;2022-11-15T04:07:58;170.02;;;49.17;;
2213;SDS011;1113;42.018;23.986;2022-11-15T04:10:25;219.20;;;55.55;;
2213;SDS011;1113;42.018;23.986;2022-11-15T04:12:53;205.48;;;53.97;;
2213;SDS011;1113;42.018;23.986;2022-11-15T04:15:20;204.32;;;45.70;;
2213;SDS011;1113;42.018;23.986;2022-11-15T04:17:47;142.52;;;40.88;;
2213;SDS011;1113;42.018;23.986;2022-11-15T04:20:17;160.38;;;43.25;;
2213;SDS011;1113;42.018;23.986;2022-11-15T04:23:01;85.88;;;37.30;;
2213;SDS011;1113;42.018;23.986;2022-11-15T04:25:47;159.57;;;42.15;;
2213;SDS011;1113;42.018;23.986;2022-11-15T04:28:16;115.10;;;40.08;;
2213;SDS011;1113;42.018;23.986;2022-11-15T04:30:43;118.88;;;41.00;;
2213;SDS011;1113;42.018;23.986;2022-11-15T04:33:10;131.10;;;38.00;;
2213;SDS011;1113;42.018;23.986;2022-11-15T04:35:37;48.92;;;32.47;;
2213;SDS011;1113;42.018;23.986;2022-11-15T04:38:04;69.47;;;37.45;;
2213;SDS011;1113;42.018;23.986;2022-11-15T04:40:30;66.65;;;36.58;;
2213;SDS011;1113;42.018;23.986;2022-11-15T04:42:56;52.75;;;36.50;;
2213;SDS011;1113;42.018;23.986;2022-11-15T04:45:24;69.90;;;37.05;;
2213;SDS011;1113;42.018;23.986;2022-11-15T04:47:51;47.45;;;31.05;;
2213;SDS011;1113;42.018;23.986;2022-11-15T04:50:18;68.72;;;34.30;;
2213;SDS011;1113;42.018;23.986;2022-11-15T04:52:49;94.28;;;36.30;;
2213;SDS011;1113;42.018;23.986;2022-11-15T04:55:16;66.55;;;33.30;;
2213;SDS011;1113;42.018;23.986;2022-11-15T04:57:43;71.50;;;39.95;;
2213;SDS011;1113;42.018;23.986;2022-11-15T05:00:10;72.15;;;39.63;;
2213;SDS011;1113;42.018;23.986;2022-11-15T05:02:39;81.72;;;42.40;;
2213;SDS011;1113;42.018;23.986;2022-11-15T05:05:23;91.10;;;45.50;;
2213;SDS011;1113;42.018;23.986;2022-11-15T05:07:50;123.10;;;42.53;;
2213;SDS011;1113;42.018;23.986;2022-11-15T05:10:17;77.22;;;37.47;;
2213;SDS011;1113;42.018;23.986;2022-11-15T05:12:43;143.40;;;44.78;;
2213;SDS011;1113;42.018;23.986;2022-11-15T05:15:10;94.40;;;40.63;;
2213;SDS011;1113;42.018;23.986;2022-11-15T05:17:36;80.85;;;42.75;;
2213;SDS011;1113;42.018;23.986;2022-11-15T05:20:05;78.45;;;40.78;;
2213;SDS011;1113;42.018;23.986;2022-11-15T05:22:32;116.70;;;45.35;;
2213;SDS011;1113;42.018;23.986;2022-11-15T05:24:58;93.22;;;41.10;;
2213;SDS011;1113;42.018;23.986;2022-11-15T05:27:25;110.88;;;37.95;;
2213;SDS011;1113;42.018;23.986;2022-11-15T05:29:51;118.78;;;45.28;;
2213;SDS011;1113;42.018;23.986;2022-11-15T05:32:18;125.65;;;46.20;;
2213;SDS011;1113;42.018;23.986;2022-11-15T05:34:44;196.80;;;55.80;;
2213;SDS011;1113;42.018;23.986;2022-11-15T05:37:14;202.50;;;54.28;;
2213;SDS011;1113;42.018;23.986;2022-11-15T05:39:42;147.27;;;55.20;;
2213;SDS011;1113;42.018;23.986;2022-11-15T05:42:09;123.50;;;57.42;;
2213;SDS011;1113;42.018;23.986;2022-11-15T05:44:36;137.38;;;57.65;;
2213;SDS011;1113;42.018;23.986;2022-11-15T05:47:03;174.05;;;65.00;;
2213;SDS011;1113;42.018;23.986;2022-11-15T05:49:31;160.60;;;58.03;;
2213;SDS011;1113;42.018;23.986;2022-11-15T05:52:02;283.52;;;69.10;;
2213;SDS011;1113;42.018;23.986;2022-11-15T05:54:30;210.23;;;57.97;;
2213;SDS011;1113;42.018;23.986;2022-11-15T05:56:58;148.82;;;55.58;;
2213;SDS011;1113;42.018;23.986;2022-11-15T05:59:25;160.27;;;57.28;;
2213;SDS011;1113;42.018;23.986;2022-11-15T06:01:51;109.47;;;50.45;;
2213;SDS011;1113;42.018;23.986;2022-11-15T06:04:18;235.38;;;59.90;;
2213;SDS011;1113;42.018;23.986;2022-11-15T06:06:44;116.47;;;52.45;;
2213;SDS011;1113;42.018;23.986;2022-11-15T06:09:11;156.07;;;63.20;;
2213;SDS011;1113;42.018;23.986;2022-11-15T06:11:39;117.28;;;58.53;;
2213;SDS011;1113;42.018;23.986;2022-11-15T06:14:05;115.78;;;62.05;;
2213;SDS011;1113;42.018;23.986;2022-11-15T06:16:32;104.68;;;53.40;;
2213;SDS011;1113;42.018;23.986;2022-11-15T06:18:58;94.68;;;50.50;;
2213;SDS011;1113;42.018;23.986;2022-11-15T06:21:25;94.50;;;48.35;;
2213;SDS011;1113;42.018;23.986;2022-11-15T06:23:53;77.88;;;46.60;;
2213;SDS011;1113;42.018;23.986;2022-11-15T06:26:19;84.38;;;51.33;;
2213;SDS011;1113;42.018;23.986;2022-11-15T06:28:47;87.38;;;50.33;;
2213;SDS011;1113;42.018;23.986;2022-11-15T06:31:14;87.57;;;49.88;;
2213;SDS011;1113;42.018;23.986;2022-11-15T06:33:51;84.72;;;49.72;;
2213;SDS011;1113;42.018;23.986;2022-11-15T06:36:21;106.45;;;50.80;;
2213;SDS011;1113;42.018;23.986;2022-11-15T06:38:47;93.95;;;53.45;;
2213;SDS011;1113;42.018;23.986;2022-11-15T06:41:14;100.97;;;55.60;;
2213;SDS011;1113;42.018;23.986;2022-11-15T06:43:41;106.38;;;59.85;;
2213;SDS011;1113;42.018;23.986;2022-11-15T06:46:09;103.07;;;58.65;;
2213;SDS011;1113;42.018;23.986;2022-11-15T06:48:36;153.77;;;67.88;;
2213;SDS011;1113;42.018;23.986;2022-11-15T06:51:03;113.57;;;60.28;;
2213;SDS011;1113;42.018;23.986;2022-11-15T06:53:30;110.25;;;66.68;;
2213;SDS011;1113;42.018;23.986;2022-11-15T06:55:58;123.95;;;71.60;;
2213;SDS011;1113;42.018;23.986;2022-11-15T06:58:25;110.10;;;57.15;;
2213;SDS011;1113;42.018;23.986;2022-11-15T07:00:52;117.63;;;63.88;;
2213;SDS011;1113;42.018;23.986;2022-11-15T07:03:20;118.07;;;64.95;;
2213;SDS011;1113;42.018;23.986;2022-11-15T07:05:50;79.80;;;40.03;;
2213;SDS011;1113;42.018;23.986;2022-11-15T07:08:17;52.78;;;32.38;;
2213;SDS011;1113;42.018;23.986;2022-11-15T07:10:44;57.58;;;35.65;;
2213;SDS011;1113;42.018;23.986;2022-11-15T07:13:10;69.13;;;41.25;;
2213;SDS011;1113;42.018;23.986;2022-11-15T07:15:37;65.68;;;42.40;;
2213;SDS011;1113;42.018;23.986;2022-11-15T07:18:03;64.78;;;37.25;;
2213;SDS011;1113;42.018;23.986;2022-11-15T07:20:31;60.53;;;39.40;;
2213;SDS011;1113;42.018;23.986;2022-11-15T07:22:59;49.78;;;34.47;;
2213;SDS011;1113;42.018;23.986;2022-11-15T07:25:25;55.38;;;36.60;;
2213;SDS011;1113;42.018;23.986;2022-11-15T07:27:54;77.32;;;45.47;;
2213;SDS011;1113;42.018;23.986;2022-11-15T07:30:20;72.95;;;43.45;;
2213;SDS011;1113;42.018;23.986;2022-11-15T07:32:47;66.70;;;42.53;;
2213;SDS011;1113;42.018;23.986;2022-11-15T07:35:13;69.88;;;44.67;;
2213;SDS011;1113;42.018;23.986;2022-11-15T07:37:41;93.15;;;54.95;;
2213;SDS011;1113;42.018;23.986;2022-11-15T07:40:08;76.88;;;50.42;;
2213;SDS011;1113;42.018;23.986;2022-11-15T07:42:35;97.65;;;54.45;;
2213;SDS011;1113;42.018;23.986;2022-11-15T07:45:21;110.80;;;63.00;;
2213;SDS011;1113;42.018;23.986;2022-11-15T07:47:48;97.55;;;54.67;;
2213;SDS011;1113;42.018;23.986;2022-11-15T07:50:14;85.68;;;52.30;;
2213;SDS011;1113;42.018;23.986;2022-11-15T07:52:43;81.95;;;49.53;;
2213;SDS011;1113;42.018;23.986;2022-11-15T07:55:09;66.70;;;44.03;;
2213;SDS011;1113;42.018;23.986;2022-11-15T07:57:36;70.05;;;46.97;;
2213;SDS011;1113;42.018;23.986;2022-11-15T08:00:02;62.58;;;42.72;;
2213;SDS011;1113;42.018;23.986;2022-11-15T08:02:29;65.90;;;41.53;;
2213;SDS011;1113;42.018;23.986;2022-11-15T08:04:55;55.58;;;37.15;;
2213;SDS011;1113;42.018;23.986;2022-11-15T08:07:22;54.25;;;36.00;;
2213;SDS011;1113;42.018;23.986;2022-11-15T08:09:50;52.97;;;38.13;;
2213;SDS011;1113;42.018;23.986;2022-11-15T08:12:16;55.00;;;37.25;;
2213;SDS011;1113;42.018;23.986;2022-11-15T08:14:43;48.80;;;36.10;;
2213;SDS011;1113;42.018;23.986;2022-11-15T08:17:09;45.05;;;32.50;;
2213;SDS011;1113;42.018;23.986;2022-11-15T08:19:36;46.13;;;30.00;;
2213;SDS011;1113;42.018;23.986;2022-11-15T08:22:02;33.53;;;26.70;;
2213;SDS011;1113;42.018;23.986;2022-11-15T08:24:29;34.22;;;25.77;;
2213;SDS011;1113;42.018;23.986;2022-11-15T08:26:57;37.47;;;26.58;;
2213;SDS011;1113;42.018;23.986;2022-11-15T08:29:23;29.65;;;20.40;;
2213;SDS011;1113;42.018;23.986;2022-11-15T08:31:50;36.33;;;27.27;;
2213;SDS011;1113;42.018;23.986;2022-11-15T08:34:16;37.25;;;25.90;;
2213;SDS011;1113;42.018;23.986;2022-11-15T08:36:43;41.90;;;31.33;;
2213;SDS011;1113;42.018;23.986;2022-11-15T08:39:10;48.83;;;36.08;;
2213;SDS011;1113;42.018;23.986;2022-11-15T08:41:37;44.42;;;34.00;;
2213;SDS011;1113;42.018;23.986;2022-11-15T08:44:05;51.03;;;35.95;;
2213;SDS011;1113;42.018;23.986;2022-11-15T08:46:32;42.83;;;30.95;;
2213;SDS011;1113;42.018;23.986;2022-11-15T08:48:58;36.47;;;25.43;;
2213;SDS011;1113;42.018;23.986;2022-11-15T08:51:25;36.40;;;24.70;;
2213;SDS011;1113;42.018;23.986;2022-11-15T08:53:51;41.70;;;28.33;;
2213;SDS011;1113;42.018;23.986;2022-11-15T08:56:18;31.93;;;23.93;;
2213;SDS011;1113;42.018;23.986;2022-11-15T08:58:44;25.10;;;19.20;;
2213;SDS011;1113;42.018;23.986;2022-11-15T09:01:16;35.77;;;26.60;;
2213;SDS011;1113;42.018;23.986;2022-11-15T09:03:43;32.67;;;24.80;;
2213;SDS011;1113;42.018;23.986;2022-11-15T09:06:10;32.70;;;24.27;;
2213;SDS011;1113;42.018;23.986;2022-11-15T09:08:36;37.73;;;26.60;;
2213;SDS011;1113;42.018;23.986;2022-11-15T09:11:03;29.20;;;24.70;;
2213;SDS011;1113;42.018;23.986;2022-11-15T09:13:29;31.80;;;24.43;;
2213;SDS011;1113;42.018;23.986;2022-11-15T09:15:57;35.67;;;23.67;;
2213;SDS011;1113;42.018;23.986;2022-11-15T09:18:25;27.73;;;22.47;;
2213;SDS011;1113;42.018;23.986;2022-11-15T09:20:54;27.83;;;21.73;;
2213;SDS011;1113;42.018;23.986;2022-11-15T09:23:21;27.50;;;18.60;;
2213;SDS011;1113;42.018;23.986;2022-11-15T09:25:48;36.47;;;21.90;;
2213;SDS011;1113;42.018;23.986;2022-11-15T09:28:15;30.03;;;20.00;;
2213;SDS011;1113;42.018;23.986;2022-11-15T09:30:43;20.80;;;14.30;;
2213;SDS011;1113;42.018;23.986;2022-11-15T09:33:09;23.10;;;15.20;;
2213;SDS011;1113;42.018;23.986;2022-11-15T09:35:38;22.13;;;16.07;;
2213;SDS011;1113;42.018;23.986;2022-11-15T09:38:06;29.07;;;18.00;;
2213;SDS011;1113;42.018;23.986;2022-11-15T09:40:32;25.40;;;17.87;;
2213;SDS011;1113;42.018;23.986;2022-11-15T09:43:04;20.50;;;15.20;;
2213;SDS011;1113;42.018;23.986;2022-11-15T09:45:34;17.73;;;14.60;;
2213;SDS011;1113;42.018;23.986;2022-11-15T09:48:08;18.77;;;14.30;;
2213;SDS011;1113;42.018;23.986;2022-11-15T09:50:38;18.67;;;15.00;;
2213;SDS011;1113;42.018;23.986;2022-11-15T09:53:08;14.73;;;12.10;;
2213;SDS011;1113;42.018;23.986;2022-11-15T09:55:47;10.23;;;8.57;;
2213;SDS011;1113;42.018;23.986;2022-11-15T09:58:18;12.40;;;10.30;;
2213;SDS011;1113;42.018;23.986;2022-11-15T10:00:47;14.57;;;10.10;;
2213;SDS011;1113;42.018;23.986;2022-11-15T10:03:22;14.37;;;10.67;;
2213;SDS011;1113;42.018;23.986;2022-11-15T10:05:51;15.83;;;11.17;;
2213;SDS011;1113;42.018;23.986;2022-11-15T10:08:25;22.20;;;13.37;;
2213;SDS011;1113;42.018;23.986;2022-11-15T10:10:55;16.93;;;11.13;;
2213;SDS011;1113;42.018;23.986;2022-11-15T10:13:23;17.70;;;10.53;;
2213;SDS011;1113;42.018;23.986;2022-11-15T10:15:50;16.30;;;11.23;;
2213;SDS011;1113;42.018;23.986;2022-11-15T10:18:17;18.37;;;12.43;;
2213;SDS011;1113;42.018;23.986;2022-11-15T10:20:48;16.90;;;12.40;;
2213;SDS011;1113;42.018;23.986;2022-11-15T10:23:17;15.97;;;10.20;;
2213;SDS011;1113;42.018;23.986;2022-11-15T10:25:44;13.57;;;11.03;;
2213;SDS011;1113;42.018;23.986;2022-11-15T10:28:13;11.97;;;9.60;;
2213;SDS011;1113;42.018;23.986;2022-11-15T10:30:41;10.30;;;8.37;;
2213;SDS011;1113;42.018;23.986;2022-11-15T10:33:17;11.60;;;9.10;;
2213;SDS011;1113;42.018;23.986;2022-11-15T10:35:46;10.60;;;8.33;;
2213;SDS011;1113;42.018;23.986;2022-11-15T10:38:12;10.67;;;9.00;;
2213;SDS011;1113;42.018;23.986;2022-11-15T10:40:40;11.00;;;9.80;;
2213;SDS011;1113;42.018;23.986;2022-11-15T10:43:13;13.50;;;9.00;;
2213;SDS011;1113;42.018;23.986;2022-11-15T10:45:40;14.83;;;10.10;;
2213;SDS011;1113;42.018;23.986;2022-11-15T10:48:25;13.70;;;8.90;;
2213;SDS011;1113;42.018;23.986;2022-11-15T10:50:52;12.73;;;10.20;;
2213;SDS011;1113;42.018;23.986;2022-11-15T10:53:29;14.43;;;10.17;;
2213;SDS011;1113;42.018;23.986;2022-11-15T10:55:59;14.90;;;12.20;;
2213;SDS011;1113;42.018;23.986;2022-11-15T10:58:30;14.07;;;11.40;;
2213;SDS011;1113;42.018;23.986;2022-11-15T11:01:05;13.53;;;10.70;;
2213;SDS011;1113;42.018;23.986;2022-11-15T11:03:35;13.97;;;11.50;;
2213;SDS011;1113;42.018;23.986;2022-11-15T11:06:05;19.33;;;11.87;;
2213;SDS011;1113;42.018;23.986;2022-11-15T11:08:32;13.00;;;9.57;;
2213;SDS011;1113;42.018;23.986;2022-11-15T11:11:01;12.33;;;10.40;;
2213;SDS011;1113;42.018;23.986;2022-11-15T11:13:31;11.40;;;9.67;;
2213;SDS011;1113;42.018;23.986;2022-11-15T11:15:59;10.90;;;9.80;;
2213;SDS011;1113;42.018;23.986;2022-11-15T11:18:31;13.57;;;9.40;;
2213;SDS011;1113;42.018;23.986;2022-11-15T11:21:00;11.23;;;8.67;;
2213;SDS011;1113;42.018;23.986;2022-11-15T11:23:36;14.50;;;9.90;;
2213;SDS011;1113;42.018;23.986;2022-11-15T11:26:10;10.70;;;8.63;;
2213;SDS011;1113;42.018;23.986;2022-11-15T11:28:41;12.90;;;9.93;;
2213;SDS011;1113;42.018;23.986;2022-11-15T11:31:14;12.17;;;8.97;;
2213;SDS011;1113;42.018;23.986;2022-11-15T11:33:44;10.60;;;8.03;;
2213;SDS011;1113;42.018;23.986;2022-11-15T11:36:15;9.10;;;7.70;;
2213;SDS011;1113;42.018;23.986;2022-11-15T11:38:47;14.63;;;7.90;;
2213;SDS011;1113;42.018;23.986;2022-11-15T11:41:20;10.20;;;8.53;;
2213;SDS011;1113;42.018;23.986;2022-11-15T11:43:52;12.43;;;10.63;;
2213;SDS011;1113;42.018;23.986;2022-11-15T11:46:44;14.70;;;10.33;;
2213;SDS011;1113;42.018;23.986;2022-11-15T11:49:14;12.33;;;9.80;;
2213;SDS011;1113;42.018;23.986;2022-11-15T11:51:42;10.63;;;8.77;;
2213;SDS011;1113;42.018;23.986;2022-11-15T11:54:11;10.20;;;8.93;;
2213;SDS011;1113;42.018;23.986;2022-11-15T11:56:41;14.93;;;10.80;;
2213;SDS011;1113;42.018;23.986;2022-11-15T11:59:10;10.90;;;8.63;;
2213;SDS011;1113;42.018;23.986;2022-11-15T12:01:40;10.73;;;9.63;;
2213;SDS011;1113;42.018;23.986;2022-11-15T12:04:09;13.50;;;11.45;;
2213;SDS011;1113;42.018;23.986;2022-11-15T12:06:38;13.80;;;11.33;;
2213;SDS011;1113;42.018;23.986;2022-11-15T12:09:11;12.57;;;10.57;;
2213;SDS011;1113;42.018;23.986;2022-11-15T12:11:43;10.87;;;9.43;;
2213;SDS011;1113;42.018;23.986;2022-11-15T12:14:18;11.50;;;10.30;;
2213;SDS011;1113;42.018;23.986;2022-11-15T12:16:47;13.37;;;11.67;;
2213;SDS011;1113;42.018;23.986;2022-11-15T12:19:13;11.10;;;9.00;;
2213;SDS011;1113;42.018;23.986;2022-11-15T12:21:42;11.53;;;10.33;;
2213;SDS011;1113;42.018;23.986;2022-11-15T12:24:11;11.73;;;10.50;;
2213;SDS011;1113;42.018;23.986;2022-11-15T12:26:40;19.83;;;16.03;;
2213;SDS011;1113;42.018;23.986;2022-11-15T12:29:11;10.73;;;9.40;;
2213;SDS011;1113;42.018;23.986;2022-11-15T12:31:39;11.50;;;9.13;;
2213;SDS011;1113;42.018;23.986;2022-11-15T12:34:23;12.80;;;9.60;;
2213;SDS011;1113;42.018;23.986;2022-11-15T12:36:54;10.60;;;9.43;;
2213;SDS011;1113;42.018;23.986;2022-11-15T12:39:21;11.40;;;9.60;;
2213;SDS011;1113;42.018;23.986;2022-11-15T12:44:57;9.10;;;7.90;;
2213;SDS011;1113;42.018;23.986;2022-11-15T12:47:25;10.23;;;8.70;;
2213;SDS011;1113;42.018;23.986;2022-11-15T12:49:52;8.80;;;6.97;;
2213;SDS011;1113;42.018;23.986;2022-11-15T12:52:19;9.20;;;7.83;;
2213;SDS011;1113;42.018;23.986;2022-11-15T12:54:53;10.77;;;8.50;;
2213;SDS011;1113;42.018;23.986;2022-11-15T12:57:30;14.50;;;11.13;;
2213;SDS011;1113;42.018;23.986;2022-11-15T12:59:59;13.80;;;11.40;;
2213;SDS011;1113;42.018;23.986;2022-11-15T13:02:27;13.50;;;11.70;;
2213;SDS011;1113;42.018;23.986;2022-11-15T13:05:56;17.50;;;12.43;;
2213;SDS011;1113;42.018;23.986;2022-11-15T13:07:56;15.63;;;11.70;;
2213;SDS011;1113;42.018;23.986;2022-11-15T13:10:29;16.50;;;11.23;;
2213;SDS011;1113;42.018;23.986;2022-11-15T13:13:00;15.47;;;11.73;;
2213;SDS011;1113;42.018;23.986;2022-11-15T13:15:37;17.67;;;14.23;;
2213;SDS011;1113;42.018;23.986;2022-11-15T13:18:25;15.27;;;13.67;;
2213;SDS011;1113;42.018;23.986;2022-11-15T13:20:52;17.53;;;14.37;;
2213;SDS011;1113;42.018;23.986;2022-11-15T13:23:19;31.37;;;27.97;;
2213;SDS011;1113;42.018;23.986;2022-11-15T13:28:36;21.80;;;17.60;;
2213;SDS011;1113;42.018;23.986;2022-11-15T13:31:13;24.10;;;18.07;;
2213;SDS011;1113;42.018;23.986;2022-11-15T13:33:43;22.30;;;17.57;;
2213;SDS011;1113;42.018;23.986;2022-11-15T13:36:13;20.83;;;15.33;;
2213;SDS011;1113;42.018;23.986;2022-11-15T13:38:40;21.87;;;15.50;;
2213;SDS011;1113;42.018;23.986;2022-11-15T13:41:16;22.17;;;15.60;;
2213;SDS011;1113;42.018;23.986;2022-11-15T13:43:43;23.40;;;17.07;;
2213;SDS011;1113;42.018;23.986;2022-11-15T13:46:12;20.30;;;16.50;;
2213;SDS011;1113;42.018;23.986;2022-11-15T13:48:39;23.30;;;18.53;;
2213;SDS011;1113;42.018;23.986;2022-11-15T13:51:07;23.73;;;18.50;;
2213;SDS011;1113;42.018;23.986;2022-11-15T13:53:34;26.93;;;20.70;;
2213;SDS011;1113;42.018;23.986;2022-11-15T13:56:03;23.43;;;18.13;;
2213;SDS011;1113;42.018;23.986;2022-11-15T13:58:30;23.83;;;17.30;;
2213;SDS011;1113;42.018;23.986;2022-11-15T14:00:59;24.50;;;16.43;;
2213;SDS011;1113;42.018;23.986;2022-11-15T14:03:28;21.23;;;14.93;;
2213;SDS011;1113;42.018;23.986;2022-11-15T14:06:08;23.07;;;15.80;;
2213;SDS011;1113;42.018;23.986;2022-11-15T14:08:37;18.63;;;15.30;;
2213;SDS011;1113;42.018;23.986;2022-11-15T14:11:07;21.47;;;15.30;;
2213;SDS011;1113;42.018;23.986;2022-11-15T14:13:34;23.33;;;15.83;;
2213;SDS011;1113;42.018;23.986;2022-11-15T14:18:44;19.10;;;14.77;;
2213;SDS011;1113;42.018;23.986;2022-11-15T14:21:12;18.10;;;13.60;;
2213;SDS011;1113;42.018;23.986;2022-11-15T14:23:38;21.90;;;15.00;;
2213;SDS011;1113;42.018;23.986;2022-11-15T14:26:10;20.20;;;14.97;;
2213;SDS011;1113;42.018;23.986;2022-11-15T14:28:38;24.50;;;15.60;;
2213;SDS011;1113;42.018;23.986;2022-11-15T14:31:09;23.80;;;17.90;;
2213;SDS011;1113;42.018;23.986;2022-11-15T14:33:36;23.43;;;15.43;;
2213;SDS011;1113;42.018;23.986;2022-11-15T14:36:06;24.03;;;17.60;;
2213;SDS011;1113;42.018;23.986;2022-11-15T14:38:32;25.80;;;19.57;;
2213;SDS011;1113;42.018;23.986;2022-11-15T14:40:59;20.63;;;16.30;;
2213;SDS011;1113;42.018;23.986;2022-11-15T14:43:26;25.80;;;17.70;;
2213;SDS011;1113;42.018;23.986;2022-11-15T14:45:52;25.73;;;18.43;;
2213;SDS011;1113;42.018;23.986;2022-11-15T14:48:19;23.40;;;18.00;;
2213;SDS011;1113;42.018;23.986;2022-11-15T14:50:45;27.83;;;18.37;;
2213;SDS011;1113;42.018;23.986;2022-11-15T14:53:13;28.87;;;19.77;;
2213;SDS011;1113;42.018;23.986;2022-11-15T14:55:41;28.50;;;20.20;;
2213;SDS011;1113;42.018;23.986;2022-11-15T14:58:07;25.40;;;19.10;;